Time;durP1;ratioP1;P1;durP2;ratioP2;P2;SDS_P1;SDS_P2;PMS_P1;PMS_P2;Temp;Humidity;BMP_temperature;BMP_pressure;BME280_temperature;BME280_humidity;BME280_pressure;Samples;Min_cycle;Max_cycle;Signal;HPM_P1;HPM_P2
2023/06/19 00:02:02;;;;;;;14.63;12.70;;;;;;;;;;5001880;28;20790;-70
2023/06/19 00:04:30;;;;;;;16.03;13.00;;;;;;;;;;4974020;28;20672;-69
2023/06/19 00:06:59;;;;;;;17.90;13.17;;;;;;;;;;4990942;28;20805;-69
2023/06/19 00:09:26;;;;;;;16.27;13.00;;;;;;;;;;4985303;28;20200;-69
2023/06/19 00:12:11;;;;;;;14.70;12.27;;;;;;;;;;5006098;28;20192;-69
2023/06/19 00:14:38;;;;;;;15.23;13.10;;;;;;;;;;4990741;28;20195;-70
2023/06/19 00:17:25;;;;;;;16.23;12.93;;;;;;;;;;4990957;28;20228;-69
2023/06/19 00:19:52;;;;;;;15.43;13.63;;;;;;;;;;4973968;28;20216;-69
2023/06/19 00:22:19;;;;;;;15.07;13.13;;;;;;;;;;4989276;28;20678;-69
2023/06/19 00:24:46;;;;;;;18.37;13.57;;;;;;;;;;4992485;28;20641;-69
2023/06/19 00:27:13;;;;;;;16.60;13.60;;;;;;;;;;4990699;28;20225;-69
2023/06/19 00:29:39;;;;;;;15.70;14.00;;;;;;;;;;4983722;28;20192;-69
2023/06/19 00:32:06;;;;;;;15.47;12.57;;;;;;;;;;5007560;28;20193;-69
2023/06/19 00:34:33;;;;;;;14.03;12.07;;;;;;;;;;4974267;28;20304;-69
2023/06/19 00:37:17;;;;;;;13.73;10.87;;;;;;;;;;4991901;28;20271;-69
2023/06/19 00:39:44;;;;;;;15.73;13.23;;;;;;;;;;4973744;28;20185;-69
2023/06/19 00:42:28;;;;;;;14.87;11.73;;;;;;;;;;4985550;28;20211;-69
2023/06/19 00:44:55;;;;;;;13.77;11.57;;;;;;;;;;5004695;28;20188;-69
2023/06/19 00:47:39;;;;;;;13.43;11.10;;;;;;;;;;5005147;28;20535;-69
2023/06/19 00:50:06;;;;;;;12.53;11.03;;;;;;;;;;4990211;28;20274;-70
2023/06/19 00:52:33;;;;;;;17.27;13.47;;;;;;;;;;4980179;28;20189;-69
2023/06/19 00:55:00;;;;;;;15.77;12.00;;;;;;;;;;4990399;28;20661;-69
2023/06/19 00:57:27;;;;;;;15.37;11.97;;;;;;;;;;4978315;28;20203;-69
2023/06/19 01:00:12;;;;;;;13.97;11.20;;;;;;;;;;4992633;28;20191;-69
2023/06/19 01:02:39;;;;;;;12.57;11.07;;;;;;;;;;4990230;28;20224;-70
2023/06/19 01:05:07;;;;;;;13.73;12.07;;;;;;;;;;4991736;28;20227;-69
2023/06/19 01:07:40;;;;;;;12.33;11.03;;;;;;;;;;4991707;28;20200;-69
2023/06/19 01:10:08;;;;;;;15.03;11.90;;;;;;;;;;4994655;28;20730;-69
2023/06/19 01:12:36;;;;;;;33.13;14.87;;;;;;;;;;4984949;28;20275;-69
2023/06/19 01:15:03;;;;;;;15.37;12.60;;;;;;;;;;4974953;28;20537;-69
2023/06/19 01:17:30;;;;;;;15.30;12.67;;;;;;;;;;4992167;28;20235;-69
2023/06/19 01:19:57;;;;;;;15.77;12.20;;;;;;;;;;4973202;28;20201;-69
2023/06/19 01:22:27;;;;;;;16.67;13.17;;;;;;;;;;4976521;28;20224;-69
2023/06/19 01:24:57;;;;;;;16.53;12.53;;;;;;;;;;5008093;28;20200;-70
2023/06/19 01:27:25;;;;;;;16.47;12.77;;;;;;;;;;4991790;28;20188;-69
2023/06/19 01:29:53;;;;;;;17.00;13.60;;;;;;;;;;4990226;28;20659;-69
2023/06/19 01:32:21;;;;;;;14.83;12.77;;;;;;;;;;4975134;28;20208;-69
2023/06/19 01:34:49;;;;;;;14.47;11.90;;;;;;;;;;4973845;28;20197;-69
2023/06/19 01:37:15;;;;;;;13.67;11.53;;;;;;;;;;4982905;28;20203;-69
2023/06/19 01:39:43;;;;;;;15.27;11.30;;;;;;;;;;4992620;28;20243;-69
2023/06/19 01:42:11;;;;;;;15.57;11.43;;;;;;;;;;4981008;28;20216;-69
2023/06/19 02:16:34;;;;;;;12.53;11.00;;;;;;;;;;4993100;28;20346;-69
2023/06/19 02:19:01;;;;;;;12.73;11.13;;;;;;;;;;5006145;28;20196;-69
2023/06/19 02:21:28;;;;;;;12.37;10.90;;;;;;;;;;5007700;28;20275;-69
2023/06/19 02:23:55;;;;;;;12.37;10.37;;;;;;;;;;5010600;28;20278;-69
2023/06/19 02:26:39;;;;;;;11.53;10.17;;;;;;;;;;4998594;28;20215;-69
2023/06/19 02:29:06;;;;;;;10.73;9.30;;;;;;;;;;4997356;28;20272;-69
2023/06/19 02:31:33;;;;;;;19.87;10.93;;;;;;;;;;4997038;28;20248;-69
2023/06/19 02:34:00;;;;;;;21.70;10.80;;;;;;;;;;4995176;28;20268;-70
2023/06/19 02:36:26;;;;;;;20.63;12.03;;;;;;;;;;4994002;28;20193;-69
2023/06/19 02:38:53;;;;;;;16.40;11.27;;;;;;;;;;4978629;28;20202;-69
2023/06/19 02:41:20;;;;;;;12.43;10.17;;;;;;;;;;5000184;28;20229;-69
2023/06/19 02:43:47;;;;;;;14.97;10.83;;;;;;;;;;4993096;28;20197;-69
2023/06/19 02:46:32;;;;;;;13.83;10.13;;;;;;;;;;4975279;28;20185;-69
2023/06/19 02:49:00;;;;;;;13.77;11.10;;;;;;;;;;4992765;28;20197;-68
2023/06/19 02:51:27;;;;;;;14.60;11.80;;;;;;;;;;5007993;28;20274;-69
2023/06/19 02:53:54;;;;;;;15.23;11.37;;;;;;;;;;4991520;28;20197;-68
2023/06/19 02:56:21;;;;;;;15.73;11.00;;;;;;;;;;5004496;28;20287;-69
2023/06/19 02:58:48;;;;;;;14.37;11.23;;;;;;;;;;4984360;28;20184;-69
2023/06/19 03:01:15;;;;;;;16.23;12.00;;;;;;;;;;5011806;28;20626;-69
2023/06/19 03:03:46;;;;;;;14.97;10.70;;;;;;;;;;4992392;28;21441;-69
2023/06/19 03:06:13;;;;;;;13.27;10.33;;;;;;;;;;4991184;28;20239;-70
2023/06/19 03:08:40;;;;;;;15.73;12.00;;;;;;;;;;5011474;28;20206;-69
2023/06/19 03:11:07;;;;;;;14.13;11.57;;;;;;;;;;5004073;28;20200;-69
2023/06/19 03:13:43;;;;;;;13.33;11.37;;;;;;;;;;4993327;28;20196;-72
2023/06/19 03:16:10;;;;;;;15.87;11.40;;;;;;;;;;4978502;28;20192;-69
2023/06/19 03:18:37;;;;;;;12.70;10.77;;;;;;;;;;4996553;28;20572;-73
2023/06/19 03:21:04;;;;;;;12.23;10.80;;;;;;;;;;4973581;28;20201;-73
2023/06/19 03:23:33;;;;;;;17.00;12.30;;;;;;;;;;4976921;28;20286;-74
2023/06/19 03:26:00;;;;;;;14.47;12.23;;;;;;;;;;4955442;28;20744;-73
2023/06/19 03:28:28;;;;;;;16.23;12.03;;;;;;;;;;4972351;28;20201;-72
2023/06/19 03:30:56;;;;;;;14.50;10.87;;;;;;;;;;4982716;28;20252;-73
2023/06/19 03:33:23;;;;;;;16.70;12.43;;;;;;;;;;4996419;28;20188;-73
2023/06/19 03:35:51;;;;;;;14.50;12.07;;;;;;;;;;4979532;28;20299;-73
2023/06/19 03:38:28;;;;;;;12.67;11.33;;;;;;;;;;4991301;28;20200;-73
2023/06/19 03:41:17;;;;;;;12.13;10.67;;;;;;;;;;4984142;28;20176;-72
2023/06/19 03:43:46;;;;;;;14.43;10.70;;;;;;;;;;5003297;28;20211;-72
2023/06/19 03:46:30;;;;;;;13.93;11.10;;;;;;;;;;4972507;28;20185;-71
2023/06/19 03:48:57;;;;;;;14.90;11.20;;;;;;;;;;4965217;28;20208;-71
2023/06/19 03:51:29;;;;;;;13.43;11.77;;;;;;;;;;4990519;28;20185;-73
2023/06/19 03:53:56;;;;;;;13.07;11.67;;;;;;;;;;4987850;28;20197;-72
2023/06/19 03:56:22;;;;;;;14.27;10.70;;;;;;;;;;4988482;28;20231;-71
2023/06/19 03:58:50;;;;;;;13.40;10.93;;;;;;;;;;4989597;28;20192;-71
2023/06/19 04:01:17;;;;;;;17.73;12.73;;;;;;;;;;4998944;28;20192;-71
2023/06/19 04:03:44;;;;;;;15.57;13.20;;;;;;;;;;4985307;28;20236;-71
2023/06/19 04:06:30;;;;;;;14.30;12.03;;;;;;;;;;5008528;28;20186;-70
2023/06/19 04:08:57;;;;;;;15.60;12.00;;;;;;;;;;4991128;28;20551;-72
2023/06/19 04:11:24;;;;;;;16.73;12.40;;;;;;;;;;4988474;28;20197;-73
2023/06/19 04:13:50;;;;;;;12.73;11.37;;;;;;;;;;4980078;28;20291;-73
2023/06/19 04:16:17;;;;;;;19.30;12.83;;;;;;;;;;4962263;28;20189;-72
2023/06/19 04:18:44;;;;;;;17.83;13.10;;;;;;;;;;4986840;28;20188;-72
2023/06/19 04:21:11;;;;;;;16.30;12.17;;;;;;;;;;4990798;28;20255;-72
2023/06/19 04:23:38;;;;;;;15.37;12.50;;;;;;;;;;4993545;28;20247;-72
2023/06/19 04:26:06;;;;;;;17.73;12.13;;;;;;;;;;4997737;28;20188;-72
2023/06/19 04:28:33;;;;;;;14.70;12.00;;;;;;;;;;4994699;28;20192;-71
2023/06/19 04:31:00;;;;;;;16.47;12.27;;;;;;;;;;4994297;28;20189;-71
2023/06/19 04:33:28;;;;;;;19.00;13.20;;;;;;;;;;4995898;28;20238;-70
2023/06/19 04:35:55;;;;;;;16.30;12.50;;;;;;;;;;4997993;28;20213;-70
2023/06/19 04:38:25;;;;;;;14.60;12.70;;;;;;;;;;4988302;28;20188;-70
2023/06/19 04:40:52;;;;;;;15.57;12.60;;;;;;;;;;4985298;28;20263;-71
2023/06/19 04:43:19;;;;;;;16.93;12.47;;;;;;;;;;4999008;28;20755;-70
2023/06/19 04:45:46;;;;;;;17.73;13.50;;;;;;;;;;4996386;28;20200;-70
2023/06/19 04:48:13;;;;;;;14.10;12.43;;;;;;;;;;4991427;28;20828;-71
2023/06/19 04:50:40;;;;;;;16.23;12.87;;;;;;;;;;5004804;28;20184;-70
2023/06/19 04:53:07;;;;;;;14.73;13.13;;;;;;;;;;4996265;28;20212;-70
2023/06/19 04:55:34;;;;;;;14.97;13.20;;;;;;;;;;4979968;28;20220;-70
2023/06/19 04:58:01;;;;;;;13.87;12.43;;;;;;;;;;5003372;28;20235;-72
2023/06/19 05:00:28;;;;;;;13.93;12.43;;;;;;;;;;5008677;28;20764;-73
2023/06/19 05:02:59;;;;;;;14.60;11.67;;;;;;;;;;4990249;28;20913;-73
2023/06/19 05:05:27;;;;;;;15.27;11.87;;;;;;;;;;4973138;28;20243;-73
2023/06/19 05:07:54;;;;;;;13.57;11.23;;;;;;;;;;4972723;28;20656;-73
2023/06/19 05:10:21;;;;;;;13.07;11.07;;;;;;;;;;4989354;28;20189;-72
2023/06/19 05:12:48;;;;;;;12.73;10.73;;;;;;;;;;4989861;28;20193;-73
2023/06/19 05:15:15;;;;;;;12.30;10.00;;;;;;;;;;5004609;28;20195;-73
2023/06/19 05:17:46;;;;;;;13.23;10.67;;;;;;;;;;4991196;28;20240;-73
2023/06/19 05:20:13;;;;;;;13.57;10.60;;;;;;;;;;4989251;28;20623;-72
2023/06/19 05:22:40;;;;;;;10.93;9.43;;;;;;;;;;4989838;28;20205;-70
2023/06/19 05:25:07;;;;;;;12.33;9.30;;;;;;;;;;4984152;28;20203;-70
2023/06/19 05:27:34;;;;;;;11.90;9.23;;;;;;;;;;4994929;28;20977;-71
2023/06/19 05:30:01;;;;;;;9.80;8.77;;;;;;;;;;5000263;28;20212;-68
2023/06/19 05:32:28;;;;;;;10.30;9.27;;;;;;;;;;4992424;28;20184;-71
2023/06/19 05:34:55;;;;;;;10.10;9.00;;;;;;;;;;4995677;28;20185;-74
2023/06/19 05:37:22;;;;;;;10.27;9.17;;;;;;;;;;4990149;28;20219;-70
2023/06/19 05:40:06;;;;;;;9.93;8.20;;;;;;;;;;5001868;28;20712;-70
2023/06/19 05:42:33;;;;;;;9.87;8.23;;;;;;;;;;5005518;28;20618;-70
2023/06/19 05:45:00;;;;;;;8.23;7.40;;;;;;;;;;4997346;28;20185;-71
2023/06/19 05:47:26;;;;;;;9.93;8.13;;;;;;;;;;5005318;28;20192;-71
2023/06/19 05:49:53;;;;;;;11.73;8.70;;;;;;;;;;5013001;28;20192;-71
2023/06/19 05:52:20;;;;;;;8.50;7.23;;;;;;;;;;5012338;28;20283;-71
2023/06/19 05:54:47;;;;;;;10.50;8.07;;;;;;;;;;5013759;28;20192;-71
2023/06/19 05:57:16;;;;;;;8.63;7.73;;;;;;;;;;5014120;28;20266;-70
2023/06/19 05:59:42;;;;;;;11.00;7.70;;;;;;;;;;5013669;28;20442;-69
2023/06/19 06:02:09;;;;;;;11.23;7.40;;;;;;;;;;5013611;28;20220;-69
2023/06/19 06:04:36;;;;;;;7.87;7.07;;;;;;;;;;5011573;28;20204;-74
2023/06/19 06:07:03;;;;;;;9.23;7.00;;;;;;;;;;5005953;28;20193;-69
2023/06/19 06:09:31;;;;;;;8.57;7.30;;;;;;;;;;5008644;28;20196;-71
2023/06/19 06:11:57;;;;;;;8.10;7.30;;;;;;;;;;5006125;28;20299;-71
2023/06/19 06:14:25;;;;;;;7.67;6.40;;;;;;;;;;4975506;28;20178;-71
2023/06/19 06:16:52;;;;;;;9.43;6.57;;;;;;;;;;4968799;28;20225;-70
2023/06/19 06:19:20;;;;;;;8.67;6.77;;;;;;;;;;4972866;28;20194;-70
2023/06/19 06:21:47;;;;;;;8.17;6.20;;;;;;;;;;4973135;28;20198;-70
2023/06/19 06:24:13;;;;;;;6.97;6.27;;;;;;;;;;4970239;28;20648;-70
2023/06/19 06:26:41;;;;;;;7.50;6.20;;;;;;;;;;4972804;28;20872;-69
2023/06/19 06:29:09;;;;;;;7.23;6.33;;;;;;;;;;4962337;28;20271;-68
2023/06/19 06:31:41;;;;;;;7.90;6.67;;;;;;;;;;4989683;28;20330;-69
2023/06/19 06:34:08;;;;;;;7.03;5.77;;;;;;;;;;4992174;28;20193;-70
2023/06/19 06:36:35;;;;;;;7.60;6.10;;;;;;;;;;4993310;28;20196;-70
2023/06/19 06:39:07;;;;;;;6.43;5.70;;;;;;;;;;4993419;28;20210;-70
2023/06/19 06:41:34;;;;;;;6.73;5.67;;;;;;;;;;4975730;28;20216;-69
2023/06/19 06:44:04;;;;;;;6.60;5.00;;;;;;;;;;4975870;28;20632;-68
2023/06/19 06:46:31;;;;;;;8.37;4.40;;;;;;;;;;4992521;28;20201;-69
2023/06/19 06:48:58;;;;;;;4.67;4.17;;;;;;;;;;4992409;28;20251;-69
2023/06/19 06:51:24;;;;;;;5.47;4.23;;;;;;;;;;4993105;28;20192;-69
2023/06/19 06:53:51;;;;;;;5.07;4.20;;;;;;;;;;4973921;28;20241;-69
2023/06/19 06:56:18;;;;;;;5.23;4.43;;;;;;;;;;4975825;28;20197;-69
2023/06/19 06:59:02;;;;;;;5.97;5.00;;;;;;;;;;4992744;28;20188;-69
2023/06/19 07:01:29;;;;;;;5.00;4.10;;;;;;;;;;4992189;28;20197;-69
2023/06/19 07:04:13;;;;;;;5.00;4.17;;;;;;;;;;4991552;28;20212;-69
2023/06/19 07:06:40;;;;;;;6.33;4.27;;;;;;;;;;4990451;28;20203;-69
2023/06/19 07:09:24;;;;;;;5.20;4.50;;;;;;;;;;4973695;28;20173;-69
2023/06/19 07:11:51;;;;;;;4.87;4.03;;;;;;;;;;4991661;28;20169;-69
2023/06/19 07:14:19;;;;;;;4.97;3.70;;;;;;;;;;4974459;28;20196;-69
2023/06/19 07:16:46;;;;;;;6.87;4.40;;;;;;;;;;4997160;28;20225;-69
2023/06/19 07:19:13;;;;;;;6.60;4.10;;;;;;;;;;5010732;28;20192;-69
2023/06/19 07:21:43;;;;;;;8.97;4.93;;;;;;;;;;5009850;28;20234;-69
2023/06/19 07:24:12;;;;;;;5.13;4.53;;;;;;;;;;5010631;28;20216;-69
2023/06/19 07:26:39;;;;;;;8.27;4.90;;;;;;;;;;5010781;28;20218;-69
2023/06/19 07:29:23;;;;;;;6.67;4.37;;;;;;;;;;5010705;28;20172;-68
2023/06/19 07:31:50;;;;;;;5.80;4.80;;;;;;;;;;5010504;28;20274;-69
2023/06/19 07:34:17;;;;;;;6.27;4.40;;;;;;;;;;4992922;28;20203;-69
2023/06/19 07:36:43;;;;;;;7.70;4.97;;;;;;;;;;5009511;28;20184;-69
2023/06/19 07:39:10;;;;;;;7.77;4.30;;;;;;;;;;5010676;28;20219;-70
2023/06/19 07:41:55;;;;;;;6.43;4.03;;;;;;;;;;5010832;28;20575;-69
2023/06/19 07:44:21;;;;;;;4.47;3.47;;;;;;;;;;5010161;28;20279;-69
2023/06/19 07:47:06;;;;;;;5.87;3.87;;;;;;;;;;5008943;28;20513;-70
2023/06/19 07:49:34;;;;;;;4.57;3.93;;;;;;;;;;5009997;28;20215;-69
2023/06/19 07:52:04;;;;;;;5.80;4.23;;;;;;;;;;4987926;28;20251;-70
2023/06/19 07:54:31;;;;;;;5.87;4.33;;;;;;;;;;4990628;28;20561;-69
2023/06/19 07:56:57;;;;;;;7.60;4.57;;;;;;;;;;4990674;28;20181;-70
2023/06/19 07:59:24;;;;;;;4.70;4.20;;;;;;;;;;4973271;28;20276;-69
2023/06/19 08:01:51;;;;;;;5.60;4.47;;;;;;;;;;4990464;28;20188;-69
2023/06/19 08:04:18;;;;;;;4.93;4.43;;;;;;;;;;4988880;28;20235;-69
2023/06/19 08:06:45;;;;;;;6.20;4.60;;;;;;;;;;4985022;28;20188;-69
2023/06/19 08:09:12;;;;;;;5.03;4.40;;;;;;;;;;4992765;28;20567;-69
2023/06/19 08:11:38;;;;;;;5.70;4.50;;;;;;;;;;5009552;28;20246;-68
2023/06/19 08:14:23;;;;;;;6.23;5.20;;;;;;;;;;5009836;28;20171;-68
2023/06/19 08:16:49;;;;;;;5.07;4.43;;;;;;;;;;5009395;28;20310;-68
2023/06/19 08:19:34;;;;;;;5.97;4.47;;;;;;;;;;5009961;28;20524;-68
2023/06/19 08:22:01;;;;;;;6.77;4.80;;;;;;;;;;5009275;28;20224;-68
2023/06/19 08:24:28;;;;;;;5.50;4.43;;;;;;;;;;5009157;28;20315;-69
2023/06/19 08:26:55;;;;;;;5.17;4.30;;;;;;;;;;5010040;28;20195;-69
2023/06/19 08:29:22;;;;;;;5.10;4.17;;;;;;;;;;5008409;28;20275;-69
2023/06/19 08:31:49;;;;;;;4.70;4.30;;;;;;;;;;5008894;28;20196;-69
2023/06/19 08:34:16;;;;;;;4.63;3.83;;;;;;;;;;5009102;28;20916;-69
2023/06/19 08:36:43;;;;;;;5.00;4.20;;;;;;;;;;5008942;28;20226;-69
2023/06/19 08:39:09;;;;;;;7.13;4.80;;;;;;;;;;5009482;28;20242;-69
2023/06/19 08:41:37;;;;;;;4.17;3.43;;;;;;;;;;5010060;28;20234;-69
2023/06/19 08:44:07;;;;;;;3.90;3.60;;;;;;;;;;5009388;28;20231;-69
2023/06/19 08:46:34;;;;;;;5.00;4.10;;;;;;;;;;5009339;28;20315;-69
2023/06/19 08:49:01;;;;;;;4.80;4.30;;;;;;;;;;4991820;28;20544;-69
2023/06/19 08:51:31;;;;;;;4.77;4.10;;;;;;;;;;4991572;28;20188;-69
2023/06/19 08:54:15;;;;;;;5.53;4.03;;;;;;;;;;5007984;28;20181;-69
2023/06/19 08:56:42;;;;;;;4.40;4.00;;;;;;;;;;4991864;28;20192;-69
2023/06/19 08:59:28;;;;;;;4.80;4.30;;;;;;;;;;4994625;28;20259;-69
2023/06/19 09:01:55;;;;;;;6.80;4.30;;;;;;;;;;4992055;28;20184;-70
2023/06/19 09:04:28;;;;;;;4.27;3.87;;;;;;;;;;4991552;28;20281;-69
2023/06/19 09:06:56;;;;;;;6.50;4.13;;;;;;;;;;5008631;28;20276;-70
2023/06/19 09:09:24;;;;;;;5.60;3.97;;;;;;;;;;4987478;28;20212;-71
2023/06/19 09:11:57;;;;;;;4.63;4.23;;;;;;;;;;4990017;28;20536;-70
2023/06/19 09:14:30;;;;;;;4.73;4.17;;;;;;;;;;4989030;28;20564;-70
2023/06/19 09:16:57;;;;;;;4.60;4.00;;;;;;;;;;4988799;28;20216;-70
2023/06/19 09:19:26;;;;;;;4.40;3.87;;;;;;;;;;4976766;28;20196;-70
2023/06/19 09:21:53;;;;;;;5.27;4.00;;;;;;;;;;5008323;28;20206;-70
2023/06/19 09:24:20;;;;;;;5.13;3.90;;;;;;;;;;5012976;28;20230;-70
2023/06/19 09:26:46;;;;;;;6.70;4.13;;;;;;;;;;5013277;28;20188;-70
2023/06/19 09:29:31;;;;;;;4.47;4.07;;;;;;;;;;5013327;28;20635;-70
2023/06/19 09:31:57;;;;;;;5.40;3.67;;;;;;;;;;5012658;28;20184;-70
2023/06/19 09:34:25;;;;;;;5.00;4.50;;;;;;;;;;4995518;28;20206;-70
2023/06/19 09:36:51;;;;;;;4.83;4.17;;;;;;;;;;4994442;28;20254;-70
2023/06/19 09:39:18;;;;;;;5.30;4.10;;;;;;;;;;4995502;28;20200;-70
2023/06/19 09:42:03;;;;;;;4.40;4.00;;;;;;;;;;4998074;28;20172;-70
2023/06/19 09:44:31;;;;;;;6.83;4.40;;;;;;;;;;4995507;28;20257;-70
2023/06/19 09:47:18;;;;;;;5.53;4.27;;;;;;;;;;5012911;28;20640;-70
2023/06/19 09:49:47;;;;;;;5.97;4.10;;;;;;;;;;4995399;28;20210;-70
2023/06/19 09:52:14;;;;;;;4.80;4.30;;;;;;;;;;5005957;28;20192;-70
2023/06/19 09:54:41;;;;;;;4.37;3.97;;;;;;;;;;4975291;28;20291;-70
2023/06/19 09:57:07;;;;;;;4.47;4.07;;;;;;;;;;5005917;28;20219;-69
2023/06/19 09:59:34;;;;;;;4.27;3.87;;;;;;;;;;5012615;28;20216;-70
2023/06/19 10:02:05;;;;;;;7.67;4.60;;;;;;;;;;5012186;28;20275;-70
2023/06/19 10:04:43;;;;;;;5.13;4.30;;;;;;;;;;5011997;28;20202;-70
2023/06/19 10:07:17;;;;;;;8.00;4.87;;;;;;;;;;4994717;28;20195;-70
2023/06/19 10:09:56;;;;;;;5.63;4.40;;;;;;;;;;4994580;28;20191;-70
2023/06/19 10:12:41;;;;;;;6.27;4.70;;;;;;;;;;5011757;28;20180;-70
2023/06/19 10:15:18;;;;;;;5.90;4.77;;;;;;;;;;4995093;28;20195;-70
2023/06/19 10:17:46;;;;;;;7.67;4.43;;;;;;;;;;5012066;28;20231;-69
2023/06/19 10:20:27;;;;;;;8.17;4.90;;;;;;;;;;5012230;28;20202;-69
2023/06/19 10:23:13;;;;;;;5.40;4.67;;;;;;;;;;5011759;28;20255;-70
2023/06/19 10:25:42;;;;;;;6.00;4.80;;;;;;;;;;5011094;28;20783;-70
2023/06/19 10:28:22;;;;;;;6.53;4.47;;;;;;;;;;5012052;28;20220;-69
2023/06/19 10:31:07;;;;;;;5.10;4.23;;;;;;;;;;4994621;28;20191;-69
2023/06/19 10:33:36;;;;;;;5.07;4.57;;;;;;;;;;5011555;28;20208;-69
2023/06/19 10:36:16;;;;;;;6.00;4.47;;;;;;;;;;5010597;28;20667;-68
2023/06/19 10:38:47;;;;;;;5.50;4.90;;;;;;;;;;4994649;28;20201;-69
2023/06/19 10:41:17;;;;;;;5.80;4.67;;;;;;;;;;5010847;28;20308;-68
2023/06/19 10:43:54;;;;;;;5.10;4.23;;;;;;;;;;5010276;28;20220;-69
2023/06/19 10:46:21;;;;;;;7.10;4.17;;;;;;;;;;5011497;28;20197;-69
2023/06/19 10:49:07;;;;;;;6.30;4.17;;;;;;;;;;4996613;28;20172;-68
2023/06/19 10:51:34;;;;;;;5.20;4.27;;;;;;;;;;5010348;28;20663;-68
2023/06/19 10:54:01;;;;;;;5.40;4.90;;;;;;;;;;4974656;28;20191;-68
2023/06/19 10:56:30;;;;;;;9.60;6.10;;;;;;;;;;4991806;28;20184;-68
2023/06/19 10:58:58;;;;;;;6.63;6.03;;;;;;;;;;4987029;28;20199;-68
2023/06/19 11:01:32;;;;;;;6.13;5.50;;;;;;;;;;4993819;28;20190;-68
2023/06/19 11:03:59;;;;;;;7.23;5.50;;;;;;;;;;5010808;28;20222;-69
2023/06/19 11:06:43;;;;;;;6.37;5.60;;;;;;;;;;5010877;28;20203;-69
2023/06/19 11:09:10;;;;;;;6.70;6.07;;;;;;;;;;4993589;28;20190;-69
2023/06/19 11:11:41;;;;;;;6.37;5.73;;;;;;;;;;5011362;28;20196;-68
2023/06/19 11:14:08;;;;;;;8.43;5.97;;;;;;;;;;5010879;28;20270;-68
2023/06/19 11:16:35;;;;;;;6.57;5.90;;;;;;;;;;5010784;28;20264;-69
2023/06/19 11:19:19;;;;;;;7.13;6.10;;;;;;;;;;4995233;28;20165;-68
2023/06/19 11:21:47;;;;;;;6.33;5.73;;;;;;;;;;4973794;28;20188;-68
2023/06/19 11:24:14;;;;;;;6.03;5.40;;;;;;;;;;4991245;28;20576;-68
2023/06/19 11:26:43;;;;;;;7.73;6.10;;;;;;;;;;4991330;28;20198;-68
2023/06/19 11:29:18;;;;;;;6.20;5.60;;;;;;;;;;4991156;28;20741;-68
2023/06/19 11:31:45;;;;;;;5.80;5.30;;;;;;;;;;4981908;28;20226;-69
2023/06/19 11:34:12;;;;;;;6.50;5.90;;;;;;;;;;4993205;28;20207;-68
2023/06/19 11:36:39;;;;;;;6.77;5.93;;;;;;;;;;5009921;28;20193;-69
2023/06/19 11:39:23;;;;;;;6.10;5.60;;;;;;;;;;5010330;28;20157;-69
2023/06/19 11:41:49;;;;;;;6.73;6.07;;;;;;;;;;5010944;28;20181;-68
2023/06/19 11:44:20;;;;;;;7.10;6.20;;;;;;;;;;4993257;28;20307;-68
2023/06/19 11:46:48;;;;;;;6.80;5.80;;;;;;;;;;5009289;28;20208;-69
2023/06/19 11:49:18;;;;;;;7.17;5.60;;;;;;;;;;4992039;28;20205;-70
2023/06/19 11:51:46;;;;;;;6.50;5.90;;;;;;;;;;4990168;28;20287;-69
2023/06/19 11:54:20;;;;;;;6.53;5.60;;;;;;;;;;4957058;28;20557;-69
2023/06/19 11:56:47;;;;;;;8.80;6.00;;;;;;;;;;4974606;28;20676;-68
2023/06/19 11:59:14;;;;;;;8.90;5.80;;;;;;;;;;4990582;28;20208;-69
2023/06/19 12:01:41;;;;;;;6.40;5.70;;;;;;;;;;4973042;28;20620;-69
2023/06/19 12:04:07;;;;;;;6.03;5.47;;;;;;;;;;4973220;28;20299;-69
2023/06/19 12:06:37;;;;;;;6.53;5.93;;;;;;;;;;4990349;28;20719;-69
2023/06/19 12:09:05;;;;;;;6.60;5.80;;;;;;;;;;5005303;28;20188;-68
2023/06/19 12:11:49;;;;;;;8.20;6.00;;;;;;;;;;5010229;28;20233;-68
2023/06/19 12:14:16;;;;;;;6.20;5.60;;;;;;;;;;4992394;28;20964;-68
2023/06/19 12:17:00;;;;;;;7.93;6.40;;;;;;;;;;4987135;28;20224;-68
2023/06/19 12:19:29;;;;;;;8.53;6.47;;;;;;;;;;4990105;28;20193;-68
2023/06/19 12:22:13;;;;;;;8.13;6.13;;;;;;;;;;4975190;28;20747;-68
2023/06/19 12:24:40;;;;;;;8.67;7.13;;;;;;;;;;4989867;28;20212;-68
2023/06/19 12:27:07;;;;;;;7.43;6.67;;;;;;;;;;4990461;28;20193;-68
2023/06/19 12:29:36;;;;;;;10.17;6.80;;;;;;;;;;4990114;28;20201;-68
2023/06/19 12:32:03;;;;;;;10.27;6.67;;;;;;;;;;4989863;28;20664;-68
2023/06/19 12:34:48;;;;;;;9.83;7.17;;;;;;;;;;4990035;28;20197;-68
2023/06/19 12:37:15;;;;;;;10.27;6.90;;;;;;;;;;4989740;28;20185;-68
2023/06/19 12:39:41;;;;;;;7.30;6.60;;;;;;;;;;4988971;28;20192;-68
2023/06/19 12:42:08;;;;;;;8.10;7.30;;;;;;;;;;4990339;28;20740;-68
2023/06/19 12:44:35;;;;;;;7.20;6.50;;;;;;;;;;4989801;28;20274;-68
2023/06/19 12:47:02;;;;;;;7.57;6.53;;;;;;;;;;4986527;28;20275;-70
2023/06/19 12:49:29;;;;;;;8.33;6.90;;;;;;;;;;4991348;28;20196;-69
2023/06/19 12:51:56;;;;;;;7.40;6.70;;;;;;;;;;4970487;28;20531;-70
2023/06/19 12:54:42;;;;;;;7.47;6.67;;;;;;;;;;4989139;28;20177;-68
2023/06/19 12:57:09;;;;;;;8.23;7.40;;;;;;;;;;4987399;28;20220;-69
2023/06/19 12:59:46;;;;;;;7.70;6.90;;;;;;;;;;4965484;28;20204;-69
2023/06/19 13:02:13;;;;;;;8.47;7.10;;;;;;;;;;4974173;28;20197;-69
2023/06/19 13:04:58;;;;;;;9.47;6.87;;;;;;;;;;4990468;28;20293;-69
2023/06/19 13:07:24;;;;;;;8.13;6.37;;;;;;;;;;4977710;28;20198;-69
2023/06/19 13:09:52;;;;;;;13.00;7.40;;;;;;;;;;4991251;28;20203;-69
2023/06/19 13:12:18;;;;;;;7.10;6.33;;;;;;;;;;4991013;28;20203;-70
2023/06/19 13:14:45;;;;;;;7.40;6.10;;;;;;;;;;4973668;28;20191;-69
2023/06/19 13:17:13;;;;;;;7.73;6.70;;;;;;;;;;4986184;28;20310;-70
2023/06/19 13:19:40;;;;;;;7.83;7.13;;;;;;;;;;5010233;28;20196;-69
2023/06/19 13:22:07;;;;;;;9.63;6.67;;;;;;;;;;4993178;28;20224;-69
2023/06/19 13:24:33;;;;;;;6.67;6.00;;;;;;;;;;4997973;28;20205;-69
2023/06/19 13:27:00;;;;;;;6.50;5.90;;;;;;;;;;4973315;28;20196;-68
2023/06/19 13:29:27;;;;;;;7.60;6.47;;;;;;;;;;5006707;28;20208;-69
2023/06/19 13:31:54;;;;;;;7.17;6.47;;;;;;;;;;4992830;28;20210;-68
2023/06/19 13:34:21;;;;;;;7.40;6.53;;;;;;;;;;5010104;28;20188;-71
2023/06/19 13:36:48;;;;;;;8.10;6.30;;;;;;;;;;5010636;28;20196;-69
2023/06/19 13:39:32;;;;;;;7.20;6.50;;;;;;;;;;5010584;28;20191;-69
2023/06/19 13:42:00;;;;;;;7.23;6.53;;;;;;;;;;5009949;28;20192;-69
2023/06/19 13:44:45;;;;;;;8.03;6.33;;;;;;;;;;4996012;28;20632;-69
2023/06/19 13:47:15;;;;;;;7.17;6.40;;;;;;;;;;5001350;28;20393;-69
2023/06/19 13:49:41;;;;;;;6.57;5.97;;;;;;;;;;5005864;28;20206;-69
2023/06/19 13:52:08;;;;;;;8.40;6.10;;;;;;;;;;5005115;28;20193;-69
2023/06/19 13:54:36;;;;;;;8.10;5.93;;;;;;;;;;4990771;28;20220;-69
2023/06/19 13:57:04;;;;;;;6.27;5.67;;;;;;;;;;4987009;28;20834;-69
2023/06/19 13:59:30;;;;;;;7.30;6.43;;;;;;;;;;4991924;28;20211;-69
2023/06/19 14:01:57;;;;;;;8.13;6.57;;;;;;;;;;5004411;28;20188;-70
2023/06/19 14:04:24;;;;;;;7.60;6.20;;;;;;;;;;4982378;28;20557;-70
2023/06/19 14:06:50;;;;;;;7.73;6.50;;;;;;;;;;4995672;28;20203;-70
2023/06/19 14:09:17;;;;;;;7.30;6.00;;;;;;;;;;5010268;28;20210;-71
2023/06/19 14:12:02;;;;;;;8.10;6.27;;;;;;;;;;4998959;28;20187;-70
2023/06/19 14:14:31;;;;;;;8.30;6.13;;;;;;;;;;4996497;28;20180;-70
2023/06/19 14:16:58;;;;;;;7.07;6.37;;;;;;;;;;5006793;28;20224;-71
2023/06/19 14:19:25;;;;;;;7.77;6.50;;;;;;;;;;5000642;28;20283;-71
2023/06/19 14:21:52;;;;;;;8.07;6.67;;;;;;;;;;5000409;28;20232;-71
2023/06/19 14:24:36;;;;;;;7.40;6.57;;;;;;;;;;4994046;28;20243;-71
2023/06/19 14:27:03;;;;;;;7.20;6.50;;;;;;;;;;4990761;28;20196;-70
2023/06/19 14:29:30;;;;;;;7.80;6.30;;;;;;;;;;5000348;28;20188;-70
2023/06/19 14:31:57;;;;;;;7.27;6.57;;;;;;;;;;4995707;28;20194;-70
2023/06/19 14:34:23;;;;;;;7.13;6.40;;;;;;;;;;5007724;28;20683;-70
2023/06/19 14:36:50;;;;;;;7.77;6.23;;;;;;;;;;5003509;28;20639;-70
2023/06/19 14:39:17;;;;;;;7.03;6.33;;;;;;;;;;4977479;28;20224;-70
2023/06/19 14:41:44;;;;;;;7.20;6.60;;;;;;;;;;5000914;28;20192;-70
2023/06/19 14:44:11;;;;;;;6.37;5.77;;;;;;;;;;4999627;28;20533;-69
2023/06/19 14:46:40;;;;;;;6.97;6.27;;;;;;;;;;4996093;28;20191;-70
2023/06/19 14:49:10;;;;;;;7.07;6.47;;;;;;;;;;4999711;28;20204;-70
2023/06/19 14:51:36;;;;;;;6.73;6.13;;;;;;;;;;4981213;28;20184;-70
2023/06/19 14:54:03;;;;;;;6.70;6.10;;;;;;;;;;4987776;28;20200;-69
2023/06/19 14:56:30;;;;;;;6.87;6.17;;;;;;;;;;5011898;28;20267;-70
2023/06/19 14:58:57;;;;;;;7.10;6.40;;;;;;;;;;4999671;28;20271;-70
2023/06/19 15:01:25;;;;;;;6.60;6.00;;;;;;;;;;5012924;28;20200;-69
2023/06/19 15:03:51;;;;;;;8.03;6.80;;;;;;;;;;4995873;28;20224;-70
2023/06/19 15:06:18;;;;;;;7.50;6.83;;;;;;;;;;4991405;28;20300;-70
2023/06/19 15:08:45;;;;;;;7.20;6.50;;;;;;;;;;4993987;28;20667;-69
2023/06/19 15:11:12;;;;;;;11.53;6.77;;;;;;;;;;5010951;28;20190;-70
2023/06/19 15:13:38;;;;;;;8.63;7.07;;;;;;;;;;5010962;28;20283;-69
2023/06/19 15:16:07;;;;;;;9.33;6.47;;;;;;;;;;5010773;28;20196;-69
2023/06/19 15:18:34;;;;;;;7.43;6.70;;;;;;;;;;5011169;28;20260;-68
2023/06/19 15:21:01;;;;;;;8.00;6.60;;;;;;;;;;4998269;28;20188;-70